Time;durP1;ratioP1;P1;durP2;ratioP2;P2;SDS_P1;SDS_P2;PMS_P1;PMS_P2;Temp;Humidity;BMP_temperature;BMP_pressure;BME280_temperature;BME280_humidity;BME280_pressure;Samples;Min_cycle;Max_cycle;Signal;HPM_P1;HPM_P2
2024/03/22 00:02:07;;;;;;;;;;;;;;;9.93;69.51;98638.19;5032831;28;19924;-79
2024/03/22 00:04:33;;;;;;;;;;;;;;;10.07;68.93;98638.31;5039655;28;19952;-78
2024/03/22 00:06:59;;;;;;;;;;;;;;;10.04;68.95;98638.88;5050286;28;19924;-78
2024/03/22 00:09:26;;;;;;;;;;;;;;;10.03;68.91;98629.13;5087506;28;20427;-78
2024/03/22 00:11:52;;;;;;;;;;;;;;;10.04;69.12;98631.53;5070051;28;20027;-79
2024/03/22 00:14:20;;;;;;;;;;;;;;;10.01;69.18;98625.88;5081154;28;19931;-78
2024/03/22 00:16:45;;;;;;;;;;;;;;;10.01;69.22;98628.56;5052079;28;19924;-82
2024/03/22 00:19:12;;;;;;;;;;;;;;;9.99;69.37;98620.72;5063824;28;19924;-82
2024/03/22 00:21:38;;;;;;;;;;;;;;;9.97;69.07;98618.31;5036929;28;19925;-82
2024/03/22 00:24:05;;;;;;;;;;;;;;;9.91;69.27;98618.69;5054085;28;19955;-82
2024/03/22 00:26:31;;;;;;;;;;;;;;;9.90;69.09;98617.84;5054070;28;20440;-83
2024/03/22 00:28:58;;;;;;;;;;;;;;;9.81;69.05;98626.94;5062269;28;19934;-83
2024/03/22 00:31:26;;;;;;;;;;;;;;;9.64;69.60;98624.66;5041367;28;20335;-82
2024/03/22 00:33:52;;;;;;;;;;;;;;;9.60;69.64;98620.91;5070576;28;19924;-82
2024/03/22 00:36:18;;;;;;;;;;;;;;;9.50;69.74;98612.88;5038382;28;19967;-83
2024/03/22 00:38:45;;;;;;;;;;;;;;;9.41;69.77;98613.50;5088276;28;19924;-81
2024/03/22 00:41:11;;;;;;;;;;;;;;;9.38;69.49;98608.66;5035172;28;19929;-83
2024/03/22 00:44:05;;;;;;;;;;;;;;;9.22;69.72;98604.47;5068462;28;19924;-82
2024/03/22 00:46:32;;;;;;;;;;;;;;;9.19;69.53;98605.03;5035456;28;20027;-83
2024/03/22 00:48:59;;;;;;;;;;;;;;;9.08;69.65;98604.31;5072224;28;19977;-83
2024/03/22 00:51:25;;;;;;;;;;;;;;;9.04;70.06;98607.88;5041045;28;20027;-83
2024/03/22 00:53:52;;;;;;;;;;;;;;;9.09;69.88;98602.41;5072406;28;20419;-83
2024/03/22 00:56:18;;;;;;;;;;;;;;;9.06;69.56;98598.38;5077107;28;19972;-83
2024/03/22 00:58:45;;;;;;;;;;;;;;;8.97;69.88;98596.56;5087661;28;19931;-84
2024/03/22 01:01:11;;;;;;;;;;;;;;;8.95;69.87;98593.31;5064818;28;19924;-83
2024/03/22 01:03:39;;;;;;;;;;;;;;;8.92;70.19;98590.06;5056201;28;20034;-83
2024/03/22 01:10:33;;;;;;;;;;;;;;;8.97;69.70;98586.53;5058833;28;19928;-82
2024/03/22 01:12:58;;;;;;;;;;;;;;;8.88;69.95;98583.59;5089735;28;19923;-81
2024/03/22 01:15:27;;;;;;;;;;;;;;;8.91;69.47;98577.63;5070772;28;19925;-82
2024/03/22 01:17:54;;;;;;;;;;;;;;;8.90;69.37;98576.00;5097580;28;20379;-79
2024/03/22 01:20:22;;;;;;;;;;;;;;;8.91;69.25;98572.22;5048703;28;19924;-79
2024/03/22 01:22:49;;;;;;;;;;;;;;;8.81;69.74;98572.28;5070723;28;19932;-79
2024/03/22 01:25:16;;;;;;;;;;;;;;;8.80;69.74;98569.88;5078174;28;19959;-79
2024/03/22 01:27:41;;;;;;;;;;;;;;;8.84;69.54;98573.59;5065059;28;19935;-79
2024/03/22 01:30:09;;;;;;;;;;;;;;;8.83;69.67;98563.88;5058996;28;19924;-78
2024/03/22 01:32:34;;;;;;;;;;;;;;;8.75;69.42;98578.84;5086436;28;20330;-80
2024/03/22 01:35:01;;;;;;;;;;;;;;;8.77;69.34;98582.06;5087760;28;19924;-79
2024/03/22 01:37:28;;;;;;;;;;;;;;;8.78;69.06;98578.25;5080044;28;19931;-79
2024/03/22 01:39:55;;;;;;;;;;;;;;;8.82;68.93;98579.31;5045275;28;19931;-79
2024/03/22 01:42:21;;;;;;;;;;;;;;;8.84;69.00;98574.44;5082396;28;19938;-80
2024/03/22 01:44:49;;;;;;;;;;;;;;;8.77;68.67;98581.25;5037285;28;19996;-80
2024/03/22 01:47:15;;;;;;;;;;;;;;;8.63;69.21;98573.78;5052155;28;20021;-81
2024/03/22 01:49:42;;;;;;;;;;;;;;;8.61;69.28;98581.38;5038872;28;19929;-80
2024/03/22 01:52:08;;;;;;;;;;;;;;;8.56;69.46;98577.91;5084129;28;19928;-80
2024/03/22 01:54:36;;;;;;;;;;;;;;;8.60;69.41;98581.66;5057518;28;19924;-79
2024/03/22 01:57:02;;;;;;;;;;;;;;;8.60;69.31;98584.38;5079708;28;20436;-80
2024/03/22 01:59:29;;;;;;;;;;;;;;;8.61;69.11;98577.84;5083840;28;20283;-80
2024/03/22 02:01:54;;;;;;;;;;;;;;;8.69;68.92;98569.16;5048818;28;20387;-78
2024/03/22 02:07:05;;;;;;;;;;;;;;;8.57;68.91;98563.25;5060651;28;19930;-64
2024/03/22 02:09:31;;;;;;;;;;;;;;;8.56;69.16;98557.03;5068440;28;19925;-64
2024/03/22 02:11:59;;;;;;;;;;;;;;;8.58;68.82;98556.78;5049492;28;19932;-64
2024/03/22 02:14:25;;;;;;;;;;;;;;;8.56;68.04;98548.09;5043278;28;19940;-63
2024/03/22 02:16:52;;;;;;;;;;;;;;;8.45;68.36;98541.94;5056181;28;19932;-60
2024/03/22 02:19:18;;;;;;;;;;;;;;;8.32;68.29;98537.97;5054192;28;19924;-64
2024/03/22 02:21:45;;;;;;;;;;;;;;;8.32;68.28;98531.75;5102526;28;19976;-64
2024/03/22 02:24:12;;;;;;;;;;;;;;;8.21;68.17;98530.19;5058067;28;20374;-64
2024/03/22 02:26:38;;;;;;;;;;;;;;;8.06;68.34;98522.97;5052904;28;20441;-65
2024/03/22 02:29:04;;;;;;;;;;;;;;;7.98;68.75;98518.94;5045559;28;19927;-64
2024/03/22 02:31:32;;;;;;;;;;;;;;;8.00;68.54;98513.25;5052554;28;19924;-64
2024/03/22 02:33:58;;;;;;;;;;;;;;;8.01;68.56;98521.09;5035055;28;19925;-64
2024/03/22 02:36:24;;;;;;;;;;;;;;;8.01;68.35;98517.59;5076078;28;19974;-71
2024/03/22 02:38:50;;;;;;;;;;;;;;;7.98;67.85;98520.84;5098031;28;20280;-65
2024/03/22 02:41:18;;;;;;;;;;;;;;;7.92;68.29;98508.44;5051030;28;19946;-63
2024/03/22 02:43:44;;;;;;;;;;;;;;;7.95;68.38;98511.38;5039744;28;19929;-63
2024/03/22 02:46:10;;;;;;;;;;;;;;;7.85;68.67;98522.25;5035644;28;19983;-64
2024/03/22 02:48:36;;;;;;;;;;;;;;;7.81;68.90;98515.78;5055771;28;19932;-63
2024/03/22 02:51:03;;;;;;;;;;;;;;;7.70;69.18;98516.94;5059335;28;19932;-64
2024/03/22 02:53:30;;;;;;;;;;;;;;;7.85;68.64;98506.84;5054499;28;19975;-64
2024/03/22 02:55:55;;;;;;;;;;;;;;;7.75;69.12;98503.38;5064364;28;19933;-65
2024/03/22 02:58:24;;;;;;;;;;;;;;;7.83;68.81;98492.78;5055900;28;19971;-64
2024/03/22 03:00:50;;;;;;;;;;;;;;;7.81;68.76;98494.94;5044643;28;20031;-62
2024/03/22 03:03:17;;;;;;;;;;;;;;;7.63;69.12;98505.59;5037969;28;19995;-63
2024/03/22 03:05:44;;;;;;;;;;;;;;;7.67;69.21;98499.38;5056873;28;19935;-65
2024/03/22 03:08:10;;;;;;;;;;;;;;;7.73;68.81;98497.44;5038593;28;20466;-64
2024/03/22 03:10:36;;;;;;;;;;;;;;;7.72;68.81;98487.69;5033709;28;19936;-63
2024/03/22 03:13:03;;;;;;;;;;;;;;;7.77;68.39;98488.47;5072803;28;20031;-63
2024/03/22 03:15:30;;;;;;;;;;;;;;;7.77;68.26;98477.66;5052954;28;19960;-64
2024/03/22 03:17:57;;;;;;;;;;;;;;;7.79;67.84;98480.91;5071923;28;19925;-62
2024/03/22 03:20:23;;;;;;;;;;;;;;;7.72;67.70;98482.28;5033647;28;19924;-65
2024/03/22 03:22:50;;;;;;;;;;;;;;;7.65;67.76;98477.19;5049507;28;19927;-63
2024/03/22 03:25:15;;;;;;;;;;;;;;;7.66;68.03;98470.69;5059792;28;19932;-65
2024/03/22 03:27:42;;;;;;;;;;;;;;;7.54;68.30;98478.31;5055648;28;19931;-63
2024/03/22 03:30:08;;;;;;;;;;;;;;;7.51;67.86;98485.09;5060959;28;19924;-63
2024/03/22 03:32:36;;;;;;;;;;;;;;;7.42;68.73;98477.84;5087308;28;19930;-63
2024/03/22 03:35:02;;;;;;;;;;;;;;;7.27;69.08;98484.91;5089315;28;19931;-66
2024/03/22 03:37:29;;;;;;;;;;;;;;;7.28;69.20;98486.53;5045130;28;19924;-62
2024/03/22 03:39:55;;;;;;;;;;;;;;;7.33;68.71;98483.81;5096825;28;19924;-65
2024/03/22 03:42:21;;;;;;;;;;;;;;;7.31;69.07;98491.41;5053626;28;19940;-65
2024/03/22 03:44:47;;;;;;;;;;;;;;;7.37;68.70;98488.69;5058624;28;19924;-62
2024/03/22 03:47:14;;;;;;;;;;;;;;;7.34;68.95;98482.72;5039908;28;20309;-63
2024/03/22 03:49:41;;;;;;;;;;;;;;;7.37;68.57;98477.88;5037534;28;19925;-63
2024/03/22 03:52:08;;;;;;;;;;;;;;;7.29;68.99;98481.94;5037496;28;19925;-62
2024/03/22 03:54:34;;;;;;;;;;;;;;;7.38;68.38;98480.28;5063366;28;19977;-64
2024/03/22 03:57:00;;;;;;;;;;;;;;;7.44;68.55;98478.38;5089756;28;19925;-65
2024/03/22 03:59:26;;;;;;;;;;;;;;;7.34;68.75;98476.50;5103637;28;19934;-64
2024/03/22 04:01:53;;;;;;;;;;;;;;;7.28;68.71;98481.13;5066356;28;19924;-63
2024/03/22 04:04:19;;;;;;;;;;;;;;;7.40;68.36;98482.69;5096229;28;19947;-65
2024/03/22 04:06:47;;;;;;;;;;;;;;;7.34;68.22;98465.69;5045061;28;20386;-62
2024/03/22 04:09:12;;;;;;;;;;;;;;;7.34;68.64;98473.81;5058112;28;19924;-62
2024/03/22 04:11:39;;;;;;;;;;;;;;;7.21;68.95;98477.13;5068451;28;20275;-62
2024/03/22 04:14:05;;;;;;;;;;;;;;;7.31;68.64;98469.78;5042978;28;19935;-66
2024/03/22 04:16:32;;;;;;;;;;;;;;;7.19;68.58;98471.16;5051829;28;19928;-64
2024/03/22 04:18:58;;;;;;;;;;;;;;;7.05;69.47;98470.94;5050295;28;19975;-66
2024/03/22 04:21:24;;;;;;;;;;;;;;;6.99;69.84;98477.44;5049876;28;19932;-67
2024/03/22 04:23:52;;;;;;;;;;;;;;;7.06;69.55;98472.56;5094369;28;20021;-63
2024/03/22 04:26:18;;;;;;;;;;;;;;;7.04;69.42;98470.13;5052763;28;19968;-64
2024/03/22 04:28:44;;;;;;;;;;;;;;;7.05;69.27;98469.03;5053447;28;19989;-63
2024/03/22 04:31:11;;;;;;;;;;;;;;;7.05;69.36;98465.53;5038521;28;19924;-63
2024/03/22 04:33:37;;;;;;;;;;;;;;;7.12;69.02;98470.66;5081580;28;19936;-63
2024/03/22 04:36:04;;;;;;;;;;;;;;;7.14;68.74;98466.59;5057141;28;19925;-64
2024/03/22 04:38:31;;;;;;;;;;;;;;;7.11;68.95;98464.44;5055607;28;20376;-66
2024/03/22 04:40:59;;;;;;;;;;;;;;;7.16;68.71;98467.13;5060775;28;19924;-63
2024/03/22 04:43:26;;;;;;;;;;;;;;;7.07;68.80;98468.75;5067458;28;19924;-64
2024/03/22 04:45:52;;;;;;;;;;;;;;;7.07;68.67;98471.47;5056973;28;19939;-63
2024/03/22 04:48:19;;;;;;;;;;;;;;;7.06;68.91;98473.34;5064152;28;19928;-62
2024/03/22 04:50:45;;;;;;;;;;;;;;;7.07;68.93;98484.97;5102225;28;19928;-64
2024/03/22 04:53:11;;;;;;;;;;;;;;;7.03;68.97;98475.78;5068671;28;20031;-70
2024/03/22 04:55:37;;;;;;;;;;;;;;;7.07;68.47;98476.88;5052712;28;19924;-62
2024/03/22 04:58:05;;;;;;;;;;;;;;;7.04;68.62;98474.72;5071050;28;19981;-67
2024/03/22 05:00:31;;;;;;;;;;;;;;;7.06;68.83;98475.25;5062102;28;19967;-63
2024/03/22 05:02:58;;;;;;;;;;;;;;;7.01;68.93;98470.66;5060204;28;19924;-64
2024/03/22 05:05:24;;;;;;;;;;;;;;;7.07;68.40;98474.16;5051206;28;19931;-67
2024/03/22 05:07:50;;;;;;;;;;;;;;;6.97;68.62;98469.59;5071490;28;20389;-64
2024/03/22 05:10:16;;;;;;;;;;;;;;;7.02;68.82;98471.47;5068278;28;19931;-64
2024/03/22 05:12:43;;;;;;;;;;;;;;;6.94;69.02;98463.94;5048098;28;19982;-63
2024/03/22 05:15:10;;;;;;;;;;;;;;;7.01;68.88;98467.97;5054201;28;19974;-62
2024/03/22 05:17:38;;;;;;;;;;;;;;;7.16;68.44;98471.72;5085058;28;19937;-64
2024/03/22 05:20:05;;;;;;;;;;;;;;;7.25;67.83;98473.59;5082148;28;19928;-64
2024/03/22 05:22:35;;;;;;;;;;;;;;;7.42;67.08;98475.16;5038714;28;19946;-65
2024/03/22 05:25:00;;;;;;;;;;;;;;;7.36;67.38;98471.66;5051484;28;19924;-67
2024/03/22 05:27:27;;;;;;;;;;;;;;;7.27;67.48;98476.81;5052811;28;19939;-64
2024/03/22 05:29:53;;;;;;;;;;;;;;;7.34;67.21;98471.91;5066560;28;19928;-71
2024/03/22 05:32:21;;;;;;;;;;;;;;;7.38;66.98;98469.47;5056305;28;19924;-63
2024/03/22 05:34:46;;;;;;;;;;;;;;;7.30;66.83;98467.34;5047100;28;19928;-65
2024/03/22 05:37:13;;;;;;;;;;;;;;;7.47;66.31;98467.81;5056589;28;19924;-64
2024/03/22 05:39:40;;;;;;;;;;;;;;;7.60;65.42;98455.56;5039946;28;20317;-61
2024/03/22 05:42:07;;;;;;;;;;;;;;;7.51;65.98;98458.06;5092979;28;20349;-66
2024/03/22 05:44:32;;;;;;;;;;;;;;;7.45;65.35;98444.84;5069299;28;19928;-62
2024/03/22 05:47:00;;;;;;;;;;;;;;;7.45;65.60;98448.34;5072563;28;19974;-64
2024/03/22 05:49:27;;;;;;;;;;;;;;;7.50;64.82;98450.22;5065248;28;20420;-65
2024/03/22 05:51:53;;;;;;;;;;;;;;;7.30;65.50;98443.84;5071070;28;19931;-63
2024/03/22 05:54:20;;;;;;;;;;;;;;;7.35;65.88;98448.41;5067490;28;20541;-63
2024/03/22 05:56:46;;;;;;;;;;;;;;;7.48;65.31;98449.69;5047974;28;19955;-67
2024/03/22 05:59:12;;;;;;;;;;;;;;;7.55;65.00;98436.69;5059414;28;20022;-65
2024/03/22 06:01:39;;;;;;;;;;;;;;;7.49;65.44;98433.19;5060635;28;19998;-63
2024/03/22 06:04:05;;;;;;;;;;;;;;;7.44;65.72;98438.63;5068490;28;20435;-65
2024/03/22 06:06:34;;;;;;;;;;;;;;;7.40;66.13;98425.94;5081780;28;19928;-69
2024/03/22 06:09:03;;;;;;;;;;;;;;;7.40;66.21;98424.03;5050636;28;19929;-66
2024/03/22 06:11:30;;;;;;;;;;;;;;;7.36;66.36;98423.00;5050672;28;20362;-64
2024/03/22 06:13:56;;;;;;;;;;;;;;;7.29;67.09;98423.28;5058015;28;19924;-63
2024/03/22 06:16:23;;;;;;;;;;;;;;;7.40;66.58;98424.03;5056201;28;19978;-65
2024/03/22 06:18:50;;;;;;;;;;;;;;;7.32;66.51;98411.94;5043305;28;19929;-63
2024/03/22 06:21:21;;;;;;;;;;;;;;;7.45;66.75;98404.28;5088954;28;19997;-65
2024/03/22 06:23:50;;;;;;;;;;;;;;;7.39;66.59;98398.09;5055698;28;19924;-64
2024/03/22 06:26:16;;;;;;;;;;;;;;;7.41;66.87;98397.84;5050729;28;19924;-67
2024/03/22 06:28:42;;;;;;;;;;;;;;;7.52;66.63;98399.41;5073495;28;19928;-64
2024/03/22 06:31:09;;;;;;;;;;;;;;;7.64;66.93;98407.97;5049952;28;19970;-65
2024/03/22 06:33:34;;;;;;;;;;;;;;;7.83;66.87;98400.81;5050772;28;19954;-64
2024/03/22 06:36:01;;;;;;;;;;;;;;;7.91;66.53;98401.31;5046467;28;19929;-66
2024/03/22 06:38:28;;;;;;;;;;;;;;;8.13;66.19;98399.78;5085167;28;19935;-63
2024/03/22 06:40:55;;;;;;;;;;;;;;;8.33;65.84;98398.78;5063551;28;19931;-66
2024/03/22 06:43:22;;;;;;;;;;;;;;;8.39;65.60;98394.97;5062614;28;20423;-69
2024/03/22 06:45:47;;;;;;;;;;;;;;;8.51;65.43;98400.00;5048887;28;19970;-64
2024/03/22 06:48:15;;;;;;;;;;;;;;;8.61;65.36;98390.97;5050653;28;19932;-61
2024/03/22 06:50:41;;;;;;;;;;;;;;;8.63;65.60;98402.34;5086167;28;19924;-64
2024/03/22 06:53:09;;;;;;;;;;;;;;;8.68;65.40;98396.03;5043182;28;19925;-61
2024/03/22 06:55:35;;;;;;;;;;;;;;;8.74;65.42;98393.03;5050634;28;19954;-61
2024/03/22 06:58:04;;;;;;;;;;;;;;;8.86;65.28;98385.28;5053514;28;20477;-63
2024/03/22 07:00:30;;;;;;;;;;;;;;;8.88;65.15;98377.66;5061653;28;19924;-61
2024/03/22 07:02:57;;;;;;;;;;;;;;;8.79;65.46;98382.13;5080469;28;19941;-65
2024/03/22 07:05:22;;;;;;;;;;;;;;;8.95;65.57;98381.94;5067926;28;20382;-60
2024/03/22 07:07:49;;;;;;;;;;;;;;;9.06;65.55;98378.03;5061136;28;19928;-61
2024/03/22 07:10:15;;;;;;;;;;;;;;;9.19;64.96;98377.31;5076278;28;19931;-65
2024/03/22 07:12:42;;;;;;;;;;;;;;;9.19;64.72;98385.44;5075775;28;19932;-61
2024/03/22 07:15:09;;;;;;;;;;;;;;;9.21;64.90;98382.44;5038539;28;19939;-60
2024/03/22 07:17:36;;;;;;;;;;;;;;;9.03;65.56;98381.31;5043811;28;20350;-67
2024/03/22 07:20:03;;;;;;;;;;;;;;;9.08;65.67;98375.81;5040157;28;19948;-64
2024/03/22 07:22:29;;;;;;;;;;;;;;;9.08;66.32;98373.13;5053055;28;19924;-65
2024/03/22 07:24:55;;;;;;;;;;;;;;;9.19;66.01;98369.97;5039870;28;19925;-63
2024/03/22 07:27:22;;;;;;;;;;;;;;;9.25;65.87;98367.19;5038771;28;20380;-65
2024/03/22 07:29:47;;;;;;;;;;;;;;;9.21;66.15;98372.38;5034026;28;20378;-64
2024/03/22 07:32:15;;;;;;;;;;;;;;;9.23;66.24;98367.50;5044763;28;19935;-62
2024/03/22 07:34:41;;;;;;;;;;;;;;;9.26;66.03;98366.91;5042059;28;19979;-64
2024/03/22 07:37:08;;;;;;;;;;;;;;;9.20;66.56;98373.50;5038867;28;19932;-61
2024/03/22 07:39:34;;;;;;;;;;;;;;;9.28;66.18;98359.31;5042740;28;19978;-63
2024/03/22 07:42:02;;;;;;;;;;;;;;;9.30;66.39;98365.22;5083029;28;20397;-64
2024/03/22 07:44:31;;;;;;;;;;;;;;;9.35;66.18;98367.88;5043657;28;20437;-64
2024/03/22 07:46:58;;;;;;;;;;;;;;;9.11;66.70;98364.41;5049426;28;20094;-64
2024/03/22 07:49:25;;;;;;;;;;;;;;;9.24;66.33;98369.13;5049314;28;19928;-71
2024/03/22 07:51:52;;;;;;;;;;;;;;;9.31;66.62;98374.97;5060703;28;19968;-64
2024/03/22 07:54:18;;;;;;;;;;;;;;;9.35;66.72;98364.34;5057226;28;20489;-63
2024/03/22 07:56:46;;;;;;;;;;;;;;;9.37;66.72;98365.66;5086449;28;20479;-67
2024/03/22 07:59:11;;;;;;;;;;;;;;;9.41;67.26;98369.41;5059470;28;19956;-62
2024/03/22 08:01:38;;;;;;;;;;;;;;;9.47;67.31;98363.91;5039478;28;19932;-62
2024/03/22 08:04:04;;;;;;;;;;;;;;;9.53;66.61;98360.03;5046705;28;19928;-64
2024/03/22 08:06:33;;;;;;;;;;;;;;;9.65;67.11;98353.09;5051043;28;19938;-62
2024/03/22 08:08:58;;;;;;;;;;;;;;;9.69;66.42;98361.41;5066352;28;19925;-61
2024/03/22 08:11:25;;;;;;;;;;;;;;;9.82;66.02;98357.97;5041254;28;19963;-61
2024/03/22 08:13:51;;;;;;;;;;;;;;;9.83;66.66;98356.88;5030943;28;19932;-63
2024/03/22 08:16:19;;;;;;;;;;;;;;;9.83;66.31;98359.59;5049298;28;20474;-64
2024/03/22 08:18:45;;;;;;;;;;;;;;;9.82;66.59;98357.97;5050338;28;20289;-67
2024/03/22 08:21:11;;;;;;;;;;;;;;;9.96;66.63;98353.41;5080245;28;19968;-61
2024/03/22 08:23:38;;;;;;;;;;;;;;;10.03;66.59;98346.81;5043629;28;19929;-61
2024/03/22 08:26:07;;;;;;;;;;;;;;;10.07;67.04;98347.81;5051028;28;20292;-63
2024/03/22 08:28:33;;;;;;;;;;;;;;;10.15;66.88;98344.41;5068210;28;20274;-62
2024/03/22 08:30:59;;;;;;;;;;;;;;;10.22;66.95;98342.09;5053169;28;19924;-63
2024/03/22 08:33:28;;;;;;;;;;;;;;;10.28;66.86;98343.69;5092717;28;19947;-69
2024/03/22 08:35:55;;;;;;;;;;;;;;;10.27;66.83;98338.53;5083985;28;20031;-63
2024/03/22 08:38:21;;;;;;;;;;;;;;;10.30;66.84;98346.91;5039065;28;20012;-62
2024/03/22 08:40:49;;;;;;;;;;;;;;;10.33;66.22;98346.28;5070971;28;19931;-61
2024/03/22 08:43:15;;;;;;;;;;;;;;;10.38;66.29;98345.41;5059380;28;19970;-62
2024/03/22 08:45:41;;;;;;;;;;;;;;;10.41;66.00;98344.81;5021186;28;19928;-64
2024/03/22 08:48:09;;;;;;;;;;;;;;;10.47;66.22;98349.84;5033020;28;20093;-61
2024/03/22 08:50:35;;;;;;;;;;;;;;;10.66;66.17;98338.09;5084369;28;19924;-63
2024/03/22 08:53:03;;;;;;;;;;;;;;;10.81;66.05;98340.50;5051253;28;19925;-61
2024/03/22 08:55:30;;;;;;;;;;;;;;;10.97;65.75;98343.72;5050445;28;19931;-62
2024/03/22 08:57:57;;;;;;;;;;;;;;;11.12;65.47;98337.16;5051252;28;19973;-62
2024/03/22 09:00:27;;;;;;;;;;;;;;;11.28;64.36;98335.72;5076455;28;19925;-62
2024/03/22 09:02:53;;;;;;;;;;;;;;;11.34;63.88;98336.41;5060971;28;19947;-60
2024/03/22 09:05:20;;;;;;;;;;;;;;;11.41;63.95;98343.06;5053621;28;19924;-61
2024/03/22 09:07:45;;;;;;;;;;;;;;;11.54;63.35;98333.25;5086443;28;19924;-61
2024/03/22 09:10:12;;;;;;;;;;;;;;;11.65;63.05;98337.34;5055984;28;19939;-61
2024/03/22 09:12:38;;;;;;;;;;;;;;;11.74;61.91;98324.63;5058393;28;19947;-61
2024/03/22 09:15:08;;;;;;;;;;;;;;;11.90;61.26;98321.56;5050245;28;20374;-67
2024/03/22 09:17:33;;;;;;;;;;;;;;;11.91;62.20;98323.97;5051092;28;19932;-62
2024/03/22 09:20:01;;;;;;;;;;;;;;;12.02;60.96;98319.88;5054744;28;19939;-62
2024/03/22 09:22:27;;;;;;;;;;;;;;;12.14;61.20;98318.50;5094357;28;19928;-66
2024/03/22 09:24:53;;;;;;;;;;;;;;;12.29;59.99;98315.38;5051373;28;19974;-61
2024/03/22 09:27:19;;;;;;;;;;;;;;;12.44;59.57;98314.19;5067260;28;19939;-64
2024/03/22 09:29:46;;;;;;;;;;;;;;;12.55;59.33;98310.88;5064060;28;19932;-66
2024/03/22 09:32:13;;;;;;;;;;;;;;;12.70;58.23;98300.66;5049845;28;19977;-62
2024/03/22 09:34:40;;;;;;;;;;;;;;;12.83;58.04;98302.47;5066195;28;19928;-68
2024/03/22 09:37:06;;;;;;;;;;;;;;;12.91;57.89;98296.25;5068441;28;19971;-63
2024/03/22 09:39:33;;;;;;;;;;;;;;;12.91;57.52;98296.25;5059460;28;19932;-65
2024/03/22 09:41:59;;;;;;;;;;;;;;;13.06;57.29;98287.63;5106906;28;19970;-63
2024/03/22 09:44:25;;;;;;;;;;;;;;;13.19;57.76;98290.50;5070433;28;19924;-64
2024/03/22 09:46:51;;;;;;;;;;;;;;;13.27;57.19;98287.03;5052981;28;19933;-65
2024/03/22 09:49:19;;;;;;;;;;;;;;;13.37;57.12;98281.28;5039476;28;19925;-63
2024/03/22 09:51:45;;;;;;;;;;;;;;;13.38;56.56;98273.88;5061104;28;19982;-68
2024/03/22 09:54:13;;;;;;;;;;;;;;;13.42;56.57;98272.91;5051926;28;19924;-61
2024/03/22 09:56:39;;;;;;;;;;;;;;;13.54;56.75;98270.34;5053057;28;19929;-63
2024/03/22 09:59:06;;;;;;;;;;;;;;;13.59;56.01;98262.00;5065861;28;19935;-61
2024/03/22 10:01:32;;;;;;;;;;;;;;;13.61;55.89;98257.00;5040788;28;19925;-63
2024/03/22 10:03:58;;;;;;;;;;;;;;;13.78;55.90;98244.47;5049019;28;19931;-64
2024/03/22 10:06:26;;;;;;;;;;;;;;;13.97;55.67;98242.19;5103807;28;19924;-61
2024/03/22 10:08:53;;;;;;;;;;;;;;;14.07;55.90;98241.03;5106597;28;20366;-63
2024/03/22 10:11:18;;;;;;;;;;;;;;;14.07;55.11;98230.91;5050871;28;19928;-61
2024/03/22 10:13:46;;;;;;;;;;;;;;;14.18;54.48;98222.34;5055655;28;19931;-62
2024/03/22 10:16:12;;;;;;;;;;;;;;;14.28;54.67;98219.25;5072878;28;19928;-62
2024/03/22 10:18:39;;;;;;;;;;;;;;;14.39;53.48;98217.78;5066270;28;20357;-63
2024/03/22 10:21:05;;;;;;;;;;;;;;;14.46;53.76;98217.25;5065311;28;20348;-62
2024/03/22 10:23:33;;;;;;;;;;;;;;;14.31;53.72;98216.66;5051121;28;19925;-62
2024/03/22 10:25:59;;;;;;;;;;;;;;;14.33;53.53;98208.94;5036322;28;19924;-68
2024/03/22 10:28:26;;;;;;;;;;;;;;;14.33;53.60;98208.94;5063552;28;20400;-64
2024/03/22 10:30:52;;;;;;;;;;;;;;;14.37;52.49;98203.59;5060199;28;19951;-63
2024/03/22 10:33:22;;;;;;;;;;;;;;;14.41;52.68;98193.63;5098779;28;19958;-68
2024/03/22 10:35:49;;;;;;;;;;;;;;;14.50;53.12;98194.41;5074041;28;19924;-62
2024/03/22 10:38:16;;;;;;;;;;;;;;;14.52;52.81;98191.34;5053725;28;19924;-64
2024/03/22 10:40:44;;;;;;;;;;;;;;;14.48;53.43;98188.47;5053298;28;19924;-65
2024/03/22 10:43:10;;;;;;;;;;;;;;;14.44;52.19;98190.25;5052776;28;19925;-62
2024/03/22 10:45:36;;;;;;;;;;;;;;;14.54;52.91;98187.16;5075235;28;20004;-70
2024/03/22 10:48:03;;;;;;;;;;;;;;;14.65;52.96;98182.13;5045007;28;19924;-62
2024/03/22 10:50:29;;;;;;;;;;;;;;;14.61;52.11;98176.50;5069090;28;19928;-62
2024/03/22 10:52:57;;;;;;;;;;;;;;;14.76;51.82;98172.41;5074632;28;20580;-62
2024/03/22 10:55:24;;;;;;;;;;;;;;;14.97;50.78;98168.84;5057875;28;19924;-62
2024/03/22 10:57:53;;;;;;;;;;;;;;;15.10;48.31;98160.38;5044926;28;19932;-64
2024/03/22 11:00:26;;;;;;;;;;;;;;;15.22;45.92;98156.09;5068515;28;20015;-62
2024/03/22 11:02:54;;;;;;;;;;;;;;;15.38;45.64;98135.16;5059803;28;19962;-62
2024/03/22 11:05:19;;;;;;;;;;;;;;;15.45;47.16;98143.66;5062314;28;19925;-66
2024/03/22 11:07:46;;;;;;;;;;;;;;;15.48;47.85;98144.91;5059167;28;19966;-63
2024/03/22 11:10:12;;;;;;;;;;;;;;;15.56;48.31;98142.09;5065758;28;19924;-62
2024/03/22 11:12:39;;;;;;;;;;;;;;;15.51;48.20;98136.81;5062270;28;19925;-62
2024/03/22 11:15:07;;;;;;;;;;;;;;;15.51;45.33;98136.03;5087640;28;19924;-63
2024/03/22 11:17:34;;;;;;;;;;;;;;;15.48;42.83;98128.47;5062284;28;19932;-62
2024/03/22 11:19:59;;;;;;;;;;;;;;;15.46;42.33;98131.56;5061726;28;19924;-61
2024/03/22 11:22:26;;;;;;;;;;;;;;;15.43;42.48;98130.28;5041740;28;20440;-65
2024/03/22 11:24:52;;;;;;;;;;;;;;;15.45;43.52;98128.03;5048807;28;20279;-62
2024/03/22 11:27:20;;;;;;;;;;;;;;;15.43;43.08;98124.81;5049394;28;20019;-61
2024/03/22 11:29:46;;;;;;;;;;;;;;;15.44;43.84;98122.88;5055314;28;19931;-63
2024/03/22 11:32:17;;;;;;;;;;;;;;;15.49;44.09;98117.19;5038696;28;19925;-60
2024/03/22 11:34:44;;;;;;;;;;;;;;;15.52;44.27;98122.00;5052629;28;19929;-63
2024/03/22 11:37:10;;;;;;;;;;;;;;;15.52;44.49;98121.19;5053610;28;19924;-65
2024/03/22 11:39:36;;;;;;;;;;;;;;;15.58;44.23;98109.69;5047581;28;19936;-64
2024/03/22 11:42:03;;;;;;;;;;;;;;;15.54;44.07;98097.00;5042789;28;20504;-61
2024/03/22 11:44:29;;;;;;;;;;;;;;;15.57;44.61;98101.81;5052201;28;19924;-60
2024/03/22 11:46:56;;;;;;;;;;;;;;;15.61;45.13;98081.63;5047466;28;20279;-60
2024/03/22 11:49:23;;;;;;;;;;;;;;;15.68;43.77;98081.88;5046099;28;19931;-61
2024/03/22 11:51:50;;;;;;;;;;;;;;;15.77;43.63;98078.25;5034636;28;20576;-60
2024/03/22 11:54:16;;;;;;;;;;;;;;;15.73;42.21;98063.63;5059834;28;19964;-63
2024/03/22 11:56:42;;;;;;;;;;;;;;;15.74;42.98;98063.28;5052720;28;19931;-62
2024/03/22 11:59:08;;;;;;;;;;;;;;;15.79;43.32;98065.00;5048658;28;20522;-60
2024/03/22 12:01:35;;;;;;;;;;;;;;;15.89;43.27;98061.81;5073821;28;19940;-61
2024/03/22 12:04:02;;;;;;;;;;;;;;;15.87;43.04;98050.38;5033685;28;19931;-61
2024/03/22 12:06:29;;;;;;;;;;;;;;;15.83;42.89;98046.75;5033066;28;19928;-64
2024/03/22 12:08:55;;;;;;;;;;;;;;;15.63;42.79;98051.97;5038608;28;19928;-61
2024/03/22 12:11:23;;;;;;;;;;;;;;;15.65;42.66;98043.41;5053412;28;20374;-66
2024/03/22 12:13:49;;;;;;;;;;;;;;;15.73;43.43;98042.53;5045105;28;19928;-62
2024/03/22 12:16:15;;;;;;;;;;;;;;;15.79;42.59;98040.34;5049662;28;19928;-61
2024/03/22 12:18:44;;;;;;;;;;;;;;;15.77;44.24;98037.97;5070375;28;19959;-60
2024/03/22 12:21:11;;;;;;;;;;;;;;;15.83;44.50;98031.09;5045195;28;19978;-60
2024/03/22 12:23:41;;;;;;;;;;;;;;;15.95;44.84;98031.09;5053697;28;19925;-60
2024/03/22 12:26:08;;;;;;;;;;;;;;;15.92;44.24;98028.22;5071169;28;20362;-63
2024/03/22 12:28:34;;;;;;;;;;;;;;;15.98;44.43;98027.69;5088034;28;19936;-60
2024/03/22 12:31:00;;;;;;;;;;;;;;;15.98;44.18;98024.16;5087766;28;19990;-61
2024/03/22 12:33:26;;;;;;;;;;;;;;;15.90;44.70;98022.31;5038305;28;19925;-61
2024/03/22 12:35:53;;;;;;;;;;;;;;;15.88;45.64;98021.88;5078757;28;20028;-64
2024/03/22 12:38:19;;;;;;;;;;;;;;;15.92;45.43;98011.78;5045466;28;19939;-61
2024/03/22 12:40:47;;;;;;;;;;;;;;;16.02;45.28;98008.59;5053847;28;19932;-60
2024/03/22 12:43:14;;;;;;;;;;;;;;;16.09;45.90;98008.84;5068876;28;19925;-61
2024/03/22 12:45:39;;;;;;;;;;;;;;;16.15;44.86;98007.44;5035851;28;19924;-60
2024/03/22 12:48:06;;;;;;;;;;;;;;;16.24;44.78;97999.06;5101607;28;20257;-60
2024/03/22 12:50:33;;;;;;;;;;;;;;;16.26;44.33;97991.31;5062062;28;19924;-60
2024/03/22 12:52:59;;;;;;;;;;;;;;;16.32;44.37;97978.97;5074169;28;20114;-60
2024/03/22 12:55:28;;;;;;;;;;;;;;;16.36;44.28;97974.38;5075880;28;19931;-60
2024/03/22 12:57:56;;;;;;;;;;;;;;;16.40;44.14;97969.00;5063794;28;20310;-61